Time;durP1;ratioP1;P1;durP2;ratioP2;P2;SDS_P1;SDS_P2;PMS_P1;PMS_P2;Temp;Humidity;BMP_temperature;BMP_pressure;BME280_temperature;BME280_humidity;BME280_pressure;Samples;Min_cycle;Max_cycle;Signal;HPM_P1;HPM_P2
2023/01/02 00:00:06;;;;;;;100.72;30.23;;;;;;;7.99;100.00;100202.31;5133798;27;20061;-92
2023/01/02 00:02:31;;;;;;;108.53;32.45;;;;;;;7.97;100.00;100203.19;5134421;27;20042;-91
2023/01/02 00:04:57;;;;;;;86.20;29.52;;;;;;;7.93;100.00;100196.97;5134321;27;20576;-92
2023/01/02 00:07:25;;;;;;;96.85;32.30;;;;;;;8.03;100.00;100205.88;5134010;27;20100;-93
2023/01/02 00:09:53;;;;;;;83.78;31.67;;;;;;;7.96;100.00;100197.03;5134105;27;20062;-91
2023/01/02 00:12:19;;;;;;;80.82;30.05;;;;;;;8.06;100.00;100203.25;5168072;27;20480;-94
2023/01/02 00:14:45;;;;;;;94.40;30.35;;;;;;;7.98;100.00;100181.13;5133401;27;20054;-92
2023/01/02 00:17:11;;;;;;;83.82;28.33;;;;;;;8.06;100.00;100197.94;5132934;27;20043;-91
2023/01/02 00:19:37;;;;;;;87.85;30.45;;;;;;;8.09;100.00;100200.63;5132724;27;20042;-91
2023/01/02 00:22:02;;;;;;;109.88;31.55;;;;;;;7.95;100.00;100178.47;5133982;27;20031;-92
2023/01/02 00:24:30;;;;;;;69.45;29.05;;;;;;;8.06;100.00;100195.31;5133958;27;20103;-92
2023/01/02 00:26:55;;;;;;;74.65;28.95;;;;;;;8.05;100.00;100182.06;5122942;27;20047;-94
2023/01/02 00:29:21;;;;;;;85.70;28.92;;;;;;;8.11;100.00;100193.59;5118348;27;20046;-91
2023/01/02 00:31:47;;;;;;;75.55;29.58;;;;;;;8.10;100.00;100182.97;5116822;27;20441;-93
2023/01/02 00:34:13;;;;;;;69.07;30.00;;;;;;;8.14;100.00;100190.94;5118884;27;20073;-90
2023/01/02 00:36:39;;;;;;;63.60;27.42;;;;;;;8.03;100.00;100174.09;5152469;27;20118;-91
2023/01/02 00:39:05;;;;;;;73.22;27.58;;;;;;;8.05;100.00;100175.00;5117675;27;20357;-93
2023/01/02 00:41:32;;;;;;;58.38;28.83;;;;;;;8.08;100.00;100182.94;5118683;27;20061;-93
2023/01/02 00:43:58;;;;;;;59.83;28.92;;;;;;;8.06;100.00;100179.41;5118345;27;20035;-90
2023/01/02 00:46:23;;;;;;;61.42;28.70;;;;;;;8.12;100.00;100183.88;5118016;27;20040;-93
2023/01/02 00:48:49;;;;;;;59.53;27.23;;;;;;;8.05;100.00;100166.16;5118743;27;20055;-90
2023/01/02 00:51:15;;;;;;;73.38;29.80;;;;;;;8.14;100.00;100180.34;5119275;27;20027;-92
2023/01/02 00:53:41;;;;;;;63.83;27.92;;;;;;;8.14;100.00;100176.81;5118151;27;20054;-92
2023/01/02 00:56:07;;;;;;;75.78;27.33;;;;;;;8.16;100.00;100183.88;5117868;27;20080;-92
2023/01/02 00:58:34;;;;;;;60.85;28.23;;;;;;;8.03;100.00;100161.72;5117775;27;20039;-90
2023/01/02 01:01:00;;;;;;;73.82;28.63;;;;;;;8.15;100.00;100175.91;5116993;27;20137;-92
2023/01/02 01:03:26;;;;;;;77.28;27.13;;;;;;;8.13;100.00;100178.59;5119158;27;20438;-93
2023/01/02 01:05:52;;;;;;;90.53;28.65;;;;;;;7.94;100.00;100174.94;5119774;27;20039;-91
2023/01/02 01:08:18;;;;;;;102.28;26.40;;;;;;;7.80;100.00;100152.75;5117369;27;20434;-93
2023/01/02 01:10:43;;;;;;;67.20;24.95;;;;;;;7.76;100.00;100156.25;5118209;27;20051;-92
2023/01/02 01:13:09;;;;;;;91.63;26.83;;;;;;;7.86;100.00;100178.41;5118468;27;20046;-92
2023/01/02 01:15:37;;;;;;;59.60;25.08;;;;;;;7.84;100.00;100182.81;5096709;28;20543;-91
2023/01/02 01:18:03;;;;;;;83.82;26.67;;;;;;;7.80;100.00;100148.34;5094640;28;20126;-92
2023/01/02 01:20:29;;;;;;;71.55;26.83;;;;;;;7.99;100.00;100170.53;5094189;28;20146;-92
2023/01/02 01:22:55;;;;;;;66.38;26.75;;;;;;;8.00;100.00;100184.66;5093927;28;20517;-92
2023/01/02 01:25:21;;;;;;;62.92;25.48;;;;;;;7.89;100.00;100163.41;5093226;28;20141;-92
2023/01/02 01:27:46;;;;;;;73.35;24.20;;;;;;;7.75;100.00;100149.22;5091483;28;20028;-93
2023/01/02 01:30:12;;;;;;;61.65;24.90;;;;;;;7.81;100.00;100154.56;5092193;28;20068;-89
2023/01/02 01:32:40;;;;;;;70.15;26.33;;;;;;;7.74;100.00;100134.19;5091964;28;20490;-91
2023/01/02 01:35:06;;;;;;;59.97;25.20;;;;;;;7.87;100.00;100166.94;5093741;28;20454;-91
2023/01/02 01:37:32;;;;;;;55.35;23.23;;;;;;;7.96;100.00;100181.13;5093253;28;20115;-91
2023/01/02 01:39:58;;;;;;;58.80;23.30;;;;;;;7.82;100.00;100153.66;5093311;28;20036;-92
2023/01/02 01:42:24;;;;;;;51.67;23.63;;;;;;;7.87;100.00;100161.63;5094126;28;20047;-91
2023/01/02 01:44:51;;;;;;;52.67;23.88;;;;;;;7.97;100.00;100179.34;5094316;28;20048;-90
2023/01/02 01:47:25;;;;;;;46.55;24.25;;;;;;;7.90;100.00;100162.53;5091833;28;20047;-92
2023/01/02 01:49:59;;;;;;;46.08;23.40;;;;;;;7.86;100.00;100149.28;5091401;28;20128;-92
2023/01/02 01:52:27;;;;;;;48.05;24.48;;;;;;;7.97;100.00;100161.69;5093436;28;20127;-91
2023/01/02 01:54:57;;;;;;;47.35;22.40;;;;;;;7.94;100.00;100160.81;5092346;28;20086;-92
2023/01/02 01:57:31;;;;;;;47.38;23.70;;;;;;;7.92;100.00;100158.16;5093643;28;20510;-91
2023/01/02 01:59:59;;;;;;;48.53;22.92;;;;;;;8.04;100.00;100173.22;5093583;28;20032;-92
2023/01/02 02:02:27;;;;;;;53.10;24.98;;;;;;;7.95;100.00;100152.84;5091574;28;20055;-93
2023/01/02 02:04:57;;;;;;;111.90;25.52;;;;;;;7.90;100.00;100149.31;5092919;28;20047;-92
2023/01/02 02:07:23;;;;;;;53.85;22.75;;;;;;;7.96;100.00;100159.94;5092775;28;20137;-93
2023/01/02 02:09:52;;;;;;;51.03;23.42;;;;;;;7.82;100.00;100143.94;5093499;28;20052;-92
2023/01/02 02:12:18;;;;;;;61.75;24.25;;;;;;;7.93;100.00;100159.91;5091445;28;20032;-91
2023/01/02 02:14:44;;;;;;;50.83;24.95;;;;;;;7.97;100.00;100164.34;5101349;28;20063;-92
2023/01/02 02:17:20;;;;;;;54.00;24.27;;;;;;;7.98;100.00;100165.22;5111657;28;20620;-91
2023/01/02 02:20:05;;;;;;;74.82;25.85;;;;;;;7.80;100.00;100131.56;5112690;28;20045;-91
2023/01/02 02:23:19;;;;;;;75.13;26.73;;;;;;;7.88;100.00;100160.78;5112648;28;20511;-92
2023/01/02 02:26:10;;;;;;;80.38;25.52;;;;;;;7.86;100.00;100163.41;5105310;28;20083;-91
2023/01/02 02:29:04;;;;;;;59.92;26.52;;;;;;;7.90;100.00;100161.66;5113232;28;20495;-92
2023/01/02 02:31:41;;;;;;;68.43;25.75;;;;;;;7.88;100.00;100163.41;5111287;28;20114;-91
2023/01/02 02:34:16;;;;;;;61.28;26.25;;;;;;;7.80;100.00;100143.03;5111574;28;20092;-91
2023/01/02 02:36:47;;;;;;;56.50;26.75;;;;;;;7.68;100.00;100126.22;5113465;28;20039;-91
2023/01/02 02:39:25;;;;;;;74.95;25.80;;;;;;;7.79;100.00;100140.41;5112248;28;20089;-93
2023/01/02 02:41:59;;;;;;;114.88;26.85;;;;;;;7.74;100.00;100134.19;5112564;28;20052;-92
2023/01/02 02:44:35;;;;;;;112.15;28.17;;;;;;;7.77;100.00;100153.63;5111840;28;20120;-92
2023/01/02 02:47:06;;;;;;;69.70;26.30;;;;;;;7.66;100.00;100135.91;5109909;28;20069;-92
2023/01/02 02:49:43;;;;;;;60.08;25.70;;;;;;;7.68;100.00;100140.34;5112048;28;20043;-93
2023/01/02 02:52:20;;;;;;;79.63;26.35;;;;;;;7.77;100.00;100150.09;5109906;28;20170;-93
2023/01/02 02:54:51;;;;;;;64.63;26.83;;;;;;;7.67;100.00;100129.72;5111779;28;20059;-92
2023/01/02 02:57:18;;;;;;;56.78;24.90;;;;;;;7.54;100.00;100102.28;5112319;28;20168;-92
2023/01/02 02:59:45;;;;;;;61.97;26.52;;;;;;;7.70;100.00;100122.72;5112607;28;20550;-92
2023/01/02 03:02:15;;;;;;;62.47;25.67;;;;;;;7.74;100.00;100127.16;5110446;28;20074;-92
2023/01/02 03:04:43;;;;;;;70.50;24.60;;;;;;;7.74;100.00;100120.94;5113537;28;20032;-92
2023/01/02 03:07:20;;;;;;;49.63;24.42;;;;;;;7.66;100.00;100106.78;5112939;28;20035;-92
2023/01/02 03:09:57;;;;;;;53.65;26.15;;;;;;;7.68;100.00;100111.22;5112547;28;20035;-91
2023/01/02 03:12:32;;;;;;;54.40;25.02;;;;;;;7.60;100.00;100092.63;5113151;28;20506;-93
2023/01/02 03:15:08;;;;;;;51.15;24.73;;;;;;;7.77;100.00;100124.50;5100518;28;20044;-93
2023/01/02 03:17:46;;;;;;;49.45;24.75;;;;;;;7.81;100.00;100113.06;5092674;28;20024;-92
2023/01/02 03:20:15;;;;;;;54.63;25.15;;;;;;;7.90;100.00;100127.22;5092930;28;20052;-92
2023/01/02 03:22:48;;;;;;;56.03;25.40;;;;;;;7.80;100.00;100107.75;5091821;28;20028;-91
2023/01/02 03:25:15;;;;;;;51.63;24.95;;;;;;;7.95;100.00;100129.00;5092624;28;20390;-91
2023/01/02 03:27:45;;;;;;;57.35;26.55;;;;;;;7.92;100.00;100115.75;5092450;28;20044;-90
2023/01/02 03:30:17;;;;;;;46.53;23.73;;;;;;;7.87;100.00;100117.50;5088433;28;20143;-91
2023/01/02 03:32:49;;;;;;;50.90;23.60;;;;;;;7.77;100.00;100116.56;5090297;28;20040;-92
2023/01/02 03:35:20;;;;;;;50.95;25.38;;;;;;;7.73;100.00;100111.25;5092146;28;20036;-92
2023/01/02 03:37:50;;;;;;;50.40;25.10;;;;;;;7.74;100.00;100110.34;5092032;28;20047;-91
2023/01/02 03:40:21;;;;;;;47.08;24.42;;;;;;;7.78;100.00;100101.56;5091969;28;20042;-91
2023/01/02 03:42:52;;;;;;;47.83;24.92;;;;;;;7.76;100.00;100104.22;5092569;28;20032;-92
2023/01/02 03:45:23;;;;;;;49.67;26.05;;;;;;;7.68;100.00;100086.50;5090977;28;20047;-92
2023/01/02 03:47:56;;;;;;;51.05;25.45;;;;;;;7.83;100.00;100102.47;5092624;28;20123;-90
2023/01/02 03:50:26;;;;;;;51.88;24.63;;;;;;;7.87;100.00;100098.06;5091263;28;20040;-93
2023/01/02 03:52:52;;;;;;;50.53;25.75;;;;;;;7.85;100.00;100094.53;5091878;28;20059;-91
2023/01/02 03:55:19;;;;;;;52.75;25.73;;;;;;;7.84;100.00;100096.28;5092086;28;20059;-91
2023/01/02 03:57:58;;;;;;;50.65;25.55;;;;;;;7.91;100.00;100107.81;5092215;28;20130;-91
2023/01/02 04:00:30;;;;;;;53.33;26.52;;;;;;;7.85;100.00;100097.16;5089872;28;20066;-92
2023/01/02 04:03:05;;;;;;;55.97;26.92;;;;;;;7.85;100.00;100102.47;5096790;28;20237;-93
2023/01/02 04:05:37;;;;;;;52.70;26.45;;;;;;;7.94;100.00;100107.84;5095258;28;20040;-91
2023/01/02 04:08:07;;;;;;;54.03;26.20;;;;;;;7.80;100.00;100078.63;5095835;28;20485;-91
2023/01/02 04:10:35;;;;;;;47.97;25.58;;;;;;;7.95;100.00;100105.19;5095745;28;20036;-91
2023/01/02 04:13:07;;;;;;;49.40;25.65;;;;;;;7.94;100.00;100100.78;5094797;28;20546;-93
2023/01/02 04:15:37;;;;;;;50.80;24.98;;;;;;;7.99;100.00;100111.38;5094296;28;20048;-91
2023/01/02 04:18:10;;;;;;;50.20;25.08;;;;;;;7.87;100.00;100098.97;5096527;28;20060;-91
2023/01/02 04:20:40;;;;;;;52.25;25.73;;;;;;;7.99;100.00;100119.31;5096462;28;20401;-92
2023/01/02 04:23:10;;;;;;;49.65;24.80;;;;;;;7.89;100.00;100104.25;5095962;28;20036;-91
2023/01/02 04:25:43;;;;;;;46.78;25.33;;;;;;;7.80;100.00;100089.22;5095858;28;20040;-91
2023/01/02 04:28:16;;;;;;;46.78;24.63;;;;;;;7.70;100.00;100076.78;5096390;28;20487;-91
2023/01/02 04:30:48;;;;;;;44.72;24.33;;;;;;;7.77;100.00;100095.38;5094098;28;20040;-91
2023/01/02 04:33:19;;;;;;;45.53;24.63;;;;;;;7.66;100.00;100086.50;5095558;28;20023;-91
2023/01/02 04:35:44;;;;;;;47.42;24.80;;;;;;;7.75;100.00;100102.44;5095914;28;20020;-91
2023/01/02 04:38:11;;;;;;;48.83;24.98;;;;;;;7.77;100.00;100115.69;5096048;28;20040;-92
2023/01/02 04:40:37;;;;;;;47.58;24.52;;;;;;;7.67;100.00;100092.66;5094120;28;20040;-92
2023/01/02 04:43:06;;;;;;;46.75;24.15;;;;;;;7.78;100.00;100104.19;5095479;28;20071;-91
2023/01/02 04:45:32;;;;;;;46.42;23.83;;;;;;;7.86;100.00;100121.03;5094294;28;20126;-91
2023/01/02 04:47:58;;;;;;;52.17;26.05;;;;;;;7.71;100.00;100090.03;5095262;28;20067;-91
2023/01/02 04:50:25;;;;;;;50.53;26.65;;;;;;;7.85;100.00;100113.97;5095998;28;20040;-91
2023/01/02 04:52:51;;;;;;;52.13;25.77;;;;;;;7.95;100.00;100114.88;5095571;28;20051;-91
2023/01/02 04:55:16;;;;;;;44.55;24.45;;;;;;;7.94;100.00;100124.59;5094388;28;20036;-89
2023/01/02 04:57:42;;;;;;;51.97;27.05;;;;;;;7.86;100.00;100113.09;5096004;28;20123;-89
2023/01/02 05:00:09;;;;;;;47.20;26.30;;;;;;;7.92;100.00;100117.53;5093731;28;20094;-91
2023/01/02 05:02:36;;;;;;;48.55;26.50;;;;;;;7.95;100.00;100122.84;5095461;28;20122;-93
2023/01/02 05:05:02;;;;;;;46.03;24.67;;;;;;;7.79;100.00;100096.28;5095510;28;20044;-93
2023/01/02 05:07:31;;;;;;;43.63;24.13;;;;;;;7.92;100.00;100131.66;5093553;28;20503;-93
2023/01/02 05:09:57;;;;;;;47.60;25.65;;;;;;;7.80;100.00;100105.97;5094930;28;20047;-90
2023/01/02 05:12:23;;;;;;;48.75;25.27;;;;;;;7.90;100.00;100117.53;5095359;28;20020;-92
2023/01/02 05:14:48;;;;;;;48.55;25.73;;;;;;;7.81;100.00;100105.13;5104921;28;20116;-91
2023/01/02 05:17:14;;;;;;;52.78;25.58;;;;;;;7.81;100.00;100125.41;5112689;28;20036;-91
2023/01/02 05:19:40;;;;;;;46.13;25.77;;;;;;;7.87;100.00;100135.16;5115083;28;20036;-91
2023/01/02 05:25:06;;;;;;;49.03;26.45;;;;;;;7.93;100.00;100143.13;5110432;27;20388;-90
2023/01/02 05:27:31;;;;;;;46.85;26.35;;;;;;;7.89;100.00;100138.69;5092483;28;20443;-92
2023/01/02 05:29:57;;;;;;;48.42;27.25;;;;;;;7.82;100.00;100136.00;5094063;28;20043;-91
2023/01/02 05:32:23;;;;;;;48.55;26.73;;;;;;;7.81;100.00;100139.53;5093292;28;20051;-93
2023/01/02 05:34:49;;;;;;;44.88;26.40;;;;;;;7.76;100.00;100124.47;5095035;28;20036;-93
2023/01/02 05:37:15;;;;;;;43.97;26.15;;;;;;;7.92;100.00;100154.63;5094315;28;20110;-91
2023/01/02 05:39:40;;;;;;;44.10;25.58;;;;;;;7.82;100.00;100140.41;5095297;28;20047;-92
2023/01/02 05:42:08;;;;;;;47.28;26.25;;;;;;;7.89;100.00;100151.94;5095452;28;20032;-92
2023/01/02 05:44:33;;;;;;;46.15;26.65;;;;;;;7.95;100.00;100158.16;5094166;28;20032;-91
2023/01/02 05:46:59;;;;;;;46.80;25.52;;;;;;;7.83;100.00;100142.22;5092075;28;20035;-91
2023/01/02 05:49:25;;;;;;;46.95;25.52;;;;;;;7.75;100.00;100133.31;5094201;28;20067;-91
2023/01/02 05:51:51;;;;;;;44.70;24.98;;;;;;;7.79;100.00;100136.00;5095366;28;20058;-92
2023/01/02 05:54:17;;;;;;;49.90;25.70;;;;;;;7.89;100.00;100158.09;5093838;28;20091;-91
2023/01/02 05:56:43;;;;;;;42.63;25.45;;;;;;;7.86;100.00;100144.84;5095969;28;20032;-91
2023/01/02 05:59:13;;;;;;;45.95;25.20;;;;;;;7.96;100.00;100164.34;5095767;28;20039;-91
2023/01/02 06:01:38;;;;;;;44.38;24.75;;;;;;;7.81;100.00;100133.38;5090776;28;20805;-91
2023/01/02 06:04:04;;;;;;;47.70;25.95;;;;;;;7.86;100.00;100139.56;5093877;28;20123;-92
2023/01/02 06:06:32;;;;;;;46.25;24.38;;;;;;;7.81;100.00;100138.66;5096986;28;20065;-92
2023/01/02 06:08:59;;;;;;;48.20;26.60;;;;;;;7.85;100.00;100136.91;5095400;28;20047;-91
2023/01/02 06:11:25;;;;;;;43.47;26.27;;;;;;;7.78;100.00;100131.56;5094504;28;20230;-91
2023/01/02 06:13:52;;;;;;;44.25;25.05;;;;;;;7.88;100.00;100151.06;5093285;28;20568;-91
2023/01/02 06:16:19;;;;;;;48.53;25.23;;;;;;;7.93;100.00;100159.03;5092921;28;20136;-91
2023/01/02 06:18:45;;;;;;;50.75;25.83;;;;;;;7.99;100.00;100167.88;5094991;28;20081;-92
2023/01/02 06:21:13;;;;;;;45.22;25.08;;;;;;;7.88;100.00;100147.53;5094376;28;20028;-92
2023/01/02 06:23:39;;;;;;;45.72;26.65;;;;;;;7.99;100.00;100173.19;5093271;28;20469;-91
2023/01/02 06:26:07;;;;;;;43.70;26.70;;;;;;;7.86;100.00;100152.81;5095568;28;20036;-92
2023/01/02 06:28:33;;;;;;;46.80;25.45;;;;;;;7.89;100.00;100160.75;5093805;28;20126;-91
2023/01/02 06:31:00;;;;;;;46.33;24.92;;;;;;;7.92;100.00;100163.44;5091274;28;20126;-92
2023/01/02 06:33:28;;;;;;;45.83;25.05;;;;;;;7.91;100.00;100159.00;5093146;28;20047;-90
2023/01/02 06:35:57;;;;;;;45.60;24.67;;;;;;;7.92;100.00;100171.38;5082047;28;20048;-91
2023/01/02 06:38:22;;;;;;;;;;;;;;;8.03;100.00;100179.41;5078565;28;20024;-91
2023/01/02 06:40:52;;;;;;;46.30;25.35;;;;;;;7.92;100.00;100159.91;5079289;28;20377;-92
2023/01/02 06:43:17;;;;;;;;;;;;;;;8.01;100.00;100179.38;5078323;28;20032;-91
2023/01/02 06:45:43;;;;;;;42.97;23.20;;;;;;;7.97;100.00;100174.94;5076096;28;20437;-91
2023/01/02 06:48:09;;;;;;;45.40;25.10;;;;;;;7.99;100.00;100180.25;5079276;28;20131;-93
2023/01/02 06:50:36;;;;;;;46.28;24.92;;;;;;;7.91;100.00;100172.25;5078667;28;20044;-92
2023/01/02 06:53:02;;;;;;;46.45;25.15;;;;;;;8.00;100.00;100188.22;5078949;28;20097;-92
2023/01/02 06:55:28;;;;;;;47.75;25.75;;;;;;;7.88;100.00;100166.06;5097295;28;20036;-92
2023/01/02 06:57:54;;;;;;;46.53;24.77;;;;;;;8.03;100.00;100193.53;5078967;28;20043;-93
2023/01/02 07:00:20;;;;;;;46.03;25.08;;;;;;;7.90;100.00;100175.78;5077453;28;20055;-93
2023/01/02 07:02:45;;;;;;;43.20;25.23;;;;;;;7.96;100.00;100185.53;5078826;28;20059;-92
2023/01/02 07:05:11;;;;;;;48.05;25.58;;;;;;;8.02;100.00;100186.47;5079301;28;20040;-91
2023/01/02 07:07:39;;;;;;;53.22;28.98;;;;;;;8.01;100.00;100183.81;5078917;28;20135;-93
2023/01/02 07:10:05;;;;;;;51.20;28.85;;;;;;;8.17;100.00;100203.31;5079276;28;20032;-92
2023/01/02 07:12:33;;;;;;;52.13;26.55;;;;;;;8.17;100.00;100200.66;5079026;28;20528;-91
2023/01/02 07:14:59;;;;;;;50.97;27.35;;;;;;;8.20;100.00;100203.34;5078976;28;20043;-92
2023/01/02 07:17:25;;;;;;;49.85;27.92;;;;;;;8.13;100.00;100197.13;5077711;28;20031;-93
2023/01/02 07:19:51;;;;;;;45.30;27.10;;;;;;;8.15;100.00;100197.13;5078988;28;20036;-91
2023/01/02 07:22:16;;;;;;;50.75;29.23;;;;;;;8.28;100.00;100220.16;5076591;28;20116;-93
2023/01/02 07:24:44;;;;;;;59.05;31.27;;;;;;;8.16;100.00;100197.13;5078182;28;20490;-92
2023/01/02 07:27:09;;;;;;;54.40;29.35;;;;;;;8.27;100.00;100210.44;5078531;28;20047;-92
2023/01/02 07:29:35;;;;;;;52.38;29.50;;;;;;;8.17;100.00;100196.25;5083098;28;20464;-93
2023/01/02 07:32:01;;;;;;;56.03;30.83;;;;;;;8.31;100.00;100219.31;5077597;28;20048;-91
2023/01/02 07:34:27;;;;;;;56.13;33.35;;;;;;;8.22;100.00;100199.81;5079748;28;20040;-92
2023/01/02 07:36:53;;;;;;;60.63;31.63;;;;;;;8.38;100.00;100235.25;5079521;28;20048;-91
2023/01/02 07:39:18;;;;;;;55.00;30.02;;;;;;;8.31;100.00;100221.97;5078656;28;20047;-92
2023/01/02 07:41:46;;;;;;;48.65;28.13;;;;;;;8.39;100.00;100238.75;5079097;28;20089;-92
2023/01/02 07:44:11;;;;;;;52.55;29.35;;;;;;;8.35;100.00;100229.94;5080760;28;20040;-91
2023/01/02 07:46:37;;;;;;;54.50;30.05;;;;;;;8.47;100.00;100242.38;5076868;28;20043;-91
2023/01/02 07:49:03;;;;;;;56.97;30.77;;;;;;;8.42;100.00;100241.47;5081368;28;20040;-92
2023/01/02 07:51:30;;;;;;;67.55;33.55;;;;;;;8.39;100.00;100217.56;5079245;28;20114;-92
2023/01/02 07:53:56;;;;;;;69.13;35.05;;;;;;;8.50;100.00;100225.59;5077997;28;20095;-92
2023/01/02 07:56:22;;;;;;;62.78;33.38;;;;;;;8.59;100.00;100233.63;5078189;28;20097;-91
2023/01/02 07:58:49;;;;;;;57.05;32.72;;;;;;;8.53;100.00;100226.50;5078121;28;20048;-91
2023/01/02 08:01:15;;;;;;;56.72;31.35;;;;;;;8.62;100.00;100234.50;5077380;28;20047;-92
2023/01/02 08:03:41;;;;;;;59.22;32.42;;;;;;;8.82;100.00;100268.19;5079201;28;20052;-91
2023/01/02 08:06:09;;;;;;;51.63;30.10;;;;;;;8.83;100.00;100268.19;5078021;28;20039;-90
2023/01/02 08:08:36;;;;;;;52.80;30.30;;;;;;;8.68;100.00;100233.66;5078588;28;20036;-90
2023/01/02 08:11:06;;;;;;;50.15;29.15;;;;;;;8.75;100.00;100230.13;5079343;28;20040;-91
2023/01/02 08:13:32;;;;;;;54.03;29.35;;;;;;;8.86;100.00;100240.78;5079199;28;20494;-90
2023/01/02 08:16:02;;;;;;;51.42;29.20;;;;;;;9.01;100.00;100261.19;5077697;28;20042;-91
2023/01/02 08:18:28;;;;;;;53.50;30.58;;;;;;;8.94;100.00;100247.00;5077300;28;20036;-90
2023/01/02 08:20:54;;;;;;;51.95;30.95;;;;;;;9.03;100.00;100255.00;5078875;28;20131;-93
2023/01/02 08:23:20;;;;;;;53.28;29.95;;;;;;;9.13;100.00;100271.84;5077390;28;20048;-90
2023/01/02 08:25:46;;;;;;;56.88;29.25;;;;;;;9.14;100.00;100259.44;5082133;28;20592;-92
2023/01/02 08:28:13;;;;;;;42.72;25.63;;;;;;;9.28;100.00;100262.13;5082290;28;20064;-91
2023/01/02 08:30:40;;;;;;;41.10;23.50;;;;;;;9.36;100.00;100240.00;5078013;28;20032;-93
2023/01/02 08:33:07;;;;;;;42.22;24.77;;;;;;;9.15;100.00;100232.00;5079219;28;20020;-90
2023/01/02 08:35:33;;;;;;;38.70;23.35;;;;;;;9.17;100.00;100252.38;5079142;28;20524;-92
2023/01/02 08:37:59;;;;;;;45.80;25.40;;;;;;;9.30;100.00;100263.00;5077052;28;20040;-92
2023/01/02 08:40:25;;;;;;;43.63;26.23;;;;;;;9.11;100.00;100241.75;5075753;28;20588;-92
2023/01/02 08:42:52;;;;;;;41.58;24.98;;;;;;;9.06;100.00;100264.72;5074849;28;20134;-90
2023/01/02 08:45:18;;;;;;;43.05;25.13;;;;;;;9.11;100.00;100278.00;5075099;28;20371;-92
2023/01/02 08:47:44;;;;;;;44.75;26.67;;;;;;;9.12;100.00;100261.22;5076814;28;20501;-92
2023/01/02 08:50:11;;;;;;;51.83;30.52;;;;;;;9.10;100.00;100232.00;5076249;28;20082;-92
2023/01/02 08:52:37;;;;;;;48.78;28.38;;;;;;;9.19;100.00;100266.53;5074189;28;20142;-91
2023/01/02 08:55:04;;;;;;;47.40;28.20;;;;;;;9.22;100.00;100277.16;5075915;28;20056;-92
2023/01/02 08:57:30;;;;;;;48.78;29.35;;;;;;;9.10;100.00;100261.19;5076014;28;20409;-92
2023/01/02 08:59:56;;;;;;;49.85;29.70;;;;;;;9.04;100.00;100274.44;5076714;28;20568;-92
2023/01/02 09:02:22;;;;;;;51.72;28.70;;;;;;;8.87;100.00;100250.53;5073575;28;20131;-92
2023/01/02 09:04:48;;;;;;;46.95;28.88;;;;;;;9.03;100.00;100275.34;5074605;28;20497;-92
2023/01/02 09:07:15;;;;;;;50.00;28.63;;;;;;;9.02;100.00;100262.94;5075746;28;20036;-91
2023/01/02 09:09:41;;;;;;;47.75;27.10;;;;;;;9.08;100.00;100260.31;5074809;28;20471;-92
2023/01/02 09:12:07;;;;;;;44.38;25.92;;;;;;;9.06;100.00;100264.72;5076723;28;20050;-93
2023/01/02 09:14:33;;;;;;;43.78;25.17;;;;;;;9.07;100.00;100258.53;5077531;28;20036;-93
2023/01/02 09:16:59;;;;;;;39.80;23.92;;;;;;;9.23;100.00;100267.44;5074265;28;20086;-93
2023/01/02 09:19:25;;;;;;;38.95;24.30;;;;;;;9.19;100.00;100252.38;5077892;28;20074;-94
2023/01/02 09:21:51;;;;;;;41.85;24.90;;;;;;;9.19;100.00;100255.91;5079343;28;20107;-93
2023/01/02 09:24:18;;;;;;;41.30;24.92;;;;;;;9.31;100.00;100278.06;5077512;28;20040;-94
2023/01/02 09:26:44;;;;;;;42.05;24.95;;;;;;;9.29;100.00;100287.81;5074110;28;20090;-92
2023/01/02 09:29:11;;;;;;;39.90;23.52;;;;;;;9.38;100.00;100277.19;5076022;28;20040;-93
2023/01/02 09:31:37;;;;;;;44.55;24.55;;;;;;;9.30;100.00;100263.00;5073706;28;20036;-93
2023/01/02 09:34:03;;;;;;;38.63;23.40;;;;;;;9.34;100.00;100251.53;5073917;28;20048;-93
2023/01/02 09:36:30;;;;;;;37.70;19.98;;;;;;;9.49;100.00;100279.88;5075582;28;20033;-91
2023/01/02 09:38:58;;;;;;;34.72;21.08;;;;;;;9.44;100.00;100242.69;5074792;28;20032;-93
2023/01/02 09:41:32;;;;;;;37.90;19.55;;;;;;;9.58;100.00;100253.31;5074598;28;20029;-91
2023/01/02 09:44:02;;;;;;;32.78;18.50;;;;;;;9.72;100.00;100254.22;5074281;28;20490;-91
2023/01/02 09:46:35;;;;;;;31.45;18.27;;;;;;;9.78;100.00;100234.72;5072273;28;20049;-92
2023/01/02 09:49:01;;;;;;;33.65;21.17;;;;;;;10.07;100.00;100258.63;5073759;28;20489;-91
2023/01/02 09:51:28;;;;;;;46.90;27.08;;;;;;;10.22;100.00;100257.72;5073695;28;20413;-93
2023/01/02 09:53:54;;;;;;;61.60;32.15;;;;;;;10.42;100.00;100265.69;5074737;28;20031;-93
2023/01/02 09:56:24;;;;;;;65.07;34.83;;;;;;;10.48;100.00;100247.94;5073547;28;20041;-93
2023/01/02 09:58:58;;;;;;;62.15;35.47;;;;;;;10.63;100.00;100249.66;5073190;28;20037;-92
2023/01/02 10:01:31;;;;;;;53.22;29.88;;;;;;;10.74;100.00;100244.31;5070480;28;20032;-91
2023/01/02 10:04:12;;;;;;;50.33;28.40;;;;;;;10.75;100.00;100238.09;5071594;28;20090;-91
2023/01/02 10:06:46;;;;;;;53.10;29.10;;;;;;;10.69;100.00;100211.50;5071872;28;20463;-91
2023/01/02 10:09:21;;;;;;;55.35;31.23;;;;;;;10.87;100.00;100222.06;5072584;28;20040;-91
2023/01/02 10:11:57;;;;;;;56.75;34.55;;;;;;;11.00;100.00;100227.34;5075320;28;20478;-93
2023/01/02 10:14:36;;;;;;;74.70;42.03;;;;;;;11.04;100.00;100218.44;5074237;28;20439;-92
2023/01/02 10:17:04;;;;;;;50.55;31.00;;;;;;;11.20;100.00;100228.09;5074288;28;20032;-92
2023/01/02 10:19:38;;;;;;;51.28;30.55;;;;;;;11.09;100.00;100206.84;5090915;28;20065;-92
2023/01/02 10:22:06;;;;;;;39.05;21.25;;;;;;;11.12;100.00;100215.72;5073520;28;20074;-94
2023/01/02 10:24:41;;;;;;;39.80;22.90;;;;;;;11.06;100.00;100208.66;5073391;28;20045;-93
2023/01/02 10:27:12;;;;;;;68.80;39.60;;;;;;;11.17;100.00;100216.56;5075475;28;20036;-93
2023/01/02 10:29:43;;;;;;;59.90;34.88;;;;;;;11.08;100.00;100199.78;5073660;28;20090;-92
2023/01/02 10:32:13;;;;;;;42.83;27.10;;;;;;;11.02;100.00;100193.63;5073960;28;20040;-92
2023/01/02 10:34:44;;;;;;;46.42;28.65;;;;;;;11.02;100.00;100193.63;5075014;28;20036;-93
2023/01/02 10:37:12;;;;;;;45.08;27.35;;;;;;;11.07;100.00;100207.78;5076377;28;20092;-94
2023/01/02 10:39:38;;;;;;;52.70;32.20;;;;;;;11.06;100.00;100212.22;5075678;28;20060;-92
2023/01/02 10:42:05;;;;;;;53.85;32.50;;;;;;;10.97;100.00;100190.06;5076066;28;20059;-92
2023/01/02 10:44:33;;;;;;;54.78;36.38;;;;;;;11.08;100.00;100212.19;5075257;28;20037;-93
2023/01/02 10:47:11;;;;;;;56.65;33.90;;;;;;;11.10;100.00;100207.72;5075490;28;20037;-92
2023/01/02 10:49:38;;;;;;;54.90;32.95;;;;;;;11.04;100.00;100181.19;5075053;28;20032;-93
2023/01/02 10:52:11;;;;;;;53.28;33.53;;;;;;;11.12;100.00;100179.31;5075424;28;20436;-93
2023/01/02 10:54:48;;;;;;;53.05;31.25;;;;;;;11.31;100.00;100194.28;5075592;28;20404;-93
2023/01/02 10:57:21;;;;;;;56.55;34.38;;;;;;;11.37;100.00;100189.81;5074828;28;20118;-93
2023/01/02 10:59:53;;;;;;;58.00;33.35;;;;;;;11.43;100.00;100195.09;5075365;28;20052;-91
2023/01/02 11:02:28;;;;;;;54.88;33.05;;;;;;;11.37;100.00;100169.41;5074933;28;20040;-92
2023/01/02 11:04:59;;;;;;;67.38;39.85;;;;;;;11.53;100.00;100188.78;5075776;28;20043;-93
2023/01/02 11:07:26;;;;;;;57.10;33.03;;;;;;;11.39;100.00;100148.97;5075532;28;20629;-94
2023/01/02 11:09:55;;;;;;;35.45;21.17;;;;;;;11.71;100.00;100180.66;5074333;28;20041;-92
2023/01/02 11:12:20;;;;;;;31.20;18.33;;;;;;;11.51;100.00;100158.63;5075693;28;20033;-92
2023/01/02 11:14:46;;;;;;;32.75;17.48;;;;;;;11.41;100.00;100135.63;5073912;28;20036;-92
2023/01/02 11:17:15;;;;;;;28.65;16.23;;;;;;;11.58;100.00;100165.69;5070611;28;20056;-93